Time;durP1;ratioP1;P1;durP2;ratioP2;P2;SDS_P1;SDS_P2;PMS_P1;PMS_P2;Temp;Humidity;BMP_temperature;BMP_pressure;BME280_temperature;BME280_humidity;BME280_pressure;Samples;Min_cycle;Max_cycle;Signal;HPM_P1;HPM_P2
2023/10/03 00:02:22;;;;;;;13.23;6.45;;;11.80;99.90;;;;;;5055980;28;20462;-80
2023/10/03 00:04:48;;;;;;;22.85;11.15;;;11.70;99.90;;;;;;5053905;28;20033;-81
2023/10/03 00:07:14;;;;;;;15.95;7.30;;;11.70;99.90;;;;;;5049962;28;20018;-81
2023/10/03 00:09:40;;;;;;;13.45;7.97;;;11.60;99.90;;;;;;5031155;28;20052;-79
2023/10/03 00:12:05;;;;;;;15.23;9.32;;;11.50;99.90;;;;;;5021904;28;20041;-81
2023/10/03 00:14:31;;;;;;;15.57;10.13;;;11.60;99.90;;;;;;5021412;28;20034;-79
2023/10/03 00:16:57;;;;;;;17.98;8.32;;;11.60;99.90;;;;;;5023001;28;20033;-80
2023/10/03 00:19:22;;;;;;;17.00;7.30;;;11.60;99.90;;;;;;5023457;28;20409;-79
2023/10/03 00:21:48;;;;;;;35.67;10.13;;;11.60;99.90;;;;;;5023159;28;20045;-81
2023/10/03 00:24:16;;;;;;;18.20;10.18;;;11.60;99.90;;;;;;5039268;28;20029;-78
2023/10/03 00:26:44;;;;;;;15.30;8.25;;;11.70;99.90;;;;;;5026032;28;20025;-81
2023/10/03 00:29:13;;;;;;;20.30;6.57;;;11.60;99.90;;;;;;5045068;28;20421;-81
2023/10/03 00:31:40;;;;;;;15.18;7.88;;;11.50;99.90;;;;;;5023981;28;20021;-78
2023/10/03 00:34:06;;;;;;;27.27;10.00;;;11.30;99.90;;;;;;5038579;28;20017;-79
2023/10/03 00:36:31;;;;;;;16.85;7.30;;;11.20;99.90;;;;;;5024681;28;20037;-81
2023/10/03 00:38:57;;;;;;;18.60;6.68;;;11.10;99.90;;;;;;5027939;28;20033;-83
2023/10/03 00:41:26;;;;;;;25.20;11.43;;;11.10;99.90;;;;;;5028616;28;20026;-81
2023/10/03 00:43:58;;;;;;;18.60;9.77;;;10.90;99.90;;;;;;5031507;28;20552;-82
2023/10/03 00:46:26;;;;;;;19.67;8.38;;;11.00;99.90;;;;;;5048460;28;20120;-82
2023/10/03 00:48:52;;;;;;;18.35;7.32;;;11.10;99.90;;;;;;5027508;28;20030;-80
2023/10/03 00:51:20;;;;;;;19.27;7.82;;;11.20;99.90;;;;;;5025785;28;20037;-79
2023/10/03 00:53:47;;;;;;;15.60;7.68;;;11.20;99.90;;;;;;5020906;28;20516;-80
2023/10/03 00:56:15;;;;;;;14.35;8.32;;;11.10;99.90;;;;;;5021501;28;20025;-79
2023/10/03 00:58:41;;;;;;;16.20;6.45;;;11.10;99.90;;;;;;5020705;28;20040;-78
2023/10/03 01:01:09;;;;;;;19.20;8.70;;;11.00;99.90;;;;;;5020621;28;20022;-79
2023/10/03 01:03:38;;;;;;;14.75;8.23;;;11.00;99.90;;;;;;5020283;28;20163;-79
2023/10/03 01:06:09;;;;;;;12.45;6.82;;;11.10;99.90;;;;;;5019395;28;20021;-79
2023/10/03 01:08:39;;;;;;;18.05;8.32;;;11.20;99.90;;;;;;5038954;28;20116;-80
2023/10/03 01:11:15;;;;;;;6.45;5.55;;;11.20;99.90;;;;;;5038609;28;20022;-79
2023/10/03 01:13:43;;;;;;;16.40;7.30;;;11.10;99.90;;;;;;5038080;28;20112;-80
2023/10/03 01:16:11;;;;;;;11.43;5.65;;;11.20;99.90;;;;;;5018847;28;20447;-79
2023/10/03 01:18:41;;;;;;;16.83;6.43;;;11.20;99.90;;;;;;5020078;28;20132;-79
2023/10/03 01:21:10;;;;;;;15.13;7.20;;;11.10;99.90;;;;;;5020398;28;20053;-80
2023/10/03 01:23:37;;;;;;;21.65;9.40;;;11.10;99.90;;;;;;5024113;28;20563;-80
2023/10/03 01:26:04;;;;;;;11.32;6.15;;;11.00;99.90;;;;;;5026324;28;20037;-81
2023/10/03 01:28:30;;;;;;;12.65;6.97;;;10.90;99.90;;;;;;5042577;28;20026;-81
2023/10/03 01:30:56;;;;;;;20.08;7.45;;;10.90;99.90;;;;;;5024420;28;20401;-79
2023/10/03 01:33:28;;;;;;;14.57;9.13;;;11.00;99.90;;;;;;5043186;28;20021;-81
2023/10/03 01:35:55;;;;;;;13.50;6.55;;;11.00;99.90;;;;;;5025002;28;20048;-81
2023/10/03 01:38:22;;;;;;;9.45;5.72;;;11.00;99.90;;;;;;5025477;28;20048;-79
2023/10/03 01:40:57;;;;;;;19.80;7.30;;;10.90;99.90;;;;;;5045125;28;20108;-80
2023/10/03 01:43:27;;;;;;;13.93;6.78;;;10.80;99.90;;;;;;5029563;28;20025;-79
2023/10/03 01:46:12;;;;;;;12.25;7.65;;;10.70;99.90;;;;;;5053203;28;20112;-79
2023/10/03 01:48:38;;;;;;;21.20;6.88;;;10.80;99.90;;;;;;5047949;28;20056;-81
2023/10/03 01:51:06;;;;;;;14.30;5.95;;;10.80;99.90;;;;;;5030237;28;20052;-81
2023/10/03 01:53:32;;;;;;;12.20;5.45;;;10.80;99.90;;;;;;5030671;28;20026;-80
2023/10/03 01:55:58;;;;;;;21.60;7.68;;;10.80;99.90;;;;;;5029533;28;20033;-80
2023/10/03 01:58:24;;;;;;;12.30;5.88;;;10.90;99.90;;;;;;5047953;28;20022;-80
2023/10/03 02:00:51;;;;;;;13.02;5.30;;;10.90;99.90;;;;;;5033024;28;20159;-81
2023/10/03 02:03:18;;;;;;;11.88;6.22;;;11.00;99.90;;;;;;5047935;28;20025;-81
2023/10/03 02:05:45;;;;;;;17.05;6.63;;;11.10;99.90;;;;;;5049481;28;20048;-81
2023/10/03 02:08:17;;;;;;;10.27;5.47;;;11.00;99.90;;;;;;5047946;28;20018;-81
2023/10/03 02:10:44;;;;;;;10.15;4.90;;;10.90;99.90;;;;;;5028000;28;20542;-80
2023/10/03 02:13:17;;;;;;;11.13;4.90;;;10.80;99.90;;;;;;5028117;28;20028;-80
2023/10/03 02:15:58;;;;;;;6.18;4.00;;;10.60;99.90;;;;;;5040567;28;20039;-80
2023/10/03 02:18:24;;;;;;;8.63;5.35;;;10.50;99.90;;;;;;5025231;28;20033;-80
2023/10/03 02:20:52;;;;;;;10.18;6.35;;;10.40;99.90;;;;;;5043988;28;20513;-81
2023/10/03 02:23:19;;;;;;;14.27;7.38;;;10.40;99.90;;;;;;5027615;28;20084;-80
2023/10/03 02:25:49;;;;;;;14.38;7.07;;;10.60;99.90;;;;;;5044316;28;20049;-80
2023/10/03 02:28:18;;;;;;;12.23;6.00;;;10.60;99.90;;;;;;5023821;28;20036;-80
2023/10/03 02:30:45;;;;;;;16.00;6.47;;;10.60;99.90;;;;;;5022647;28;20025;-81
2023/10/03 02:33:14;;;;;;;15.95;6.28;;;10.60;99.90;;;;;;5039935;28;20494;-80
2023/10/03 02:35:45;;;;;;;16.08;7.03;;;10.60;99.90;;;;;;5022942;28;20040;-80
2023/10/03 02:38:20;;;;;;;9.55;5.45;;;10.60;99.90;;;;;;5040157;28;20089;-79
2023/10/03 02:40:47;;;;;;;8.07;6.55;;;10.50;99.90;;;;;;5022612;28;20057;-79
2023/10/03 02:43:15;;;;;;;14.45;5.75;;;10.50;99.90;;;;;;5022913;28;20048;-79
2023/10/03 02:45:42;;;;;;;14.88;6.78;;;10.50;99.90;;;;;;5023263;28;20041;-80
2023/10/03 02:48:17;;;;;;;13.98;6.43;;;10.50;99.90;;;;;;5024752;28;20025;-80
2023/10/03 02:50:50;;;;;;;10.32;6.53;;;10.60;99.90;;;;;;5023163;28;20025;-80
2023/10/03 02:53:22;;;;;;;15.18;6.32;;;10.80;99.90;;;;;;5024286;28;20029;-80
2023/10/03 02:55:49;;;;;;;18.65;6.90;;;10.80;99.90;;;;;;5027096;28;20048;-80
2023/10/03 02:58:16;;;;;;;14.63;5.60;;;10.80;99.90;;;;;;5048661;28;20036;-79
2023/10/03 03:00:43;;;;;;;14.50;6.18;;;10.90;99.90;;;;;;5034197;28;20032;-79
2023/10/03 03:03:10;;;;;;;11.20;6.78;;;10.80;99.90;;;;;;5019632;28;20029;-79
2023/10/03 03:05:37;;;;;;;9.93;6.00;;;10.80;99.90;;;;;;5018337;28;20112;-80
2023/10/03 03:10:43;;;;;;;9.05;5.35;;;10.40;99.90;;;;;;5036641;28;20061;-79
2023/10/03 03:13:12;;;;;;;13.55;5.78;;;10.40;99.90;;;;;;5019999;28;20026;-81
2023/10/03 03:15:38;;;;;;;9.30;6.63;;;10.30;99.90;;;;;;5022549;28;20022;-80
2023/10/03 03:18:04;;;;;;;12.65;5.18;;;10.30;99.90;;;;;;5020985;28;20025;-81
2023/10/03 03:20:37;;;;;;;13.27;7.28;;;10.30;99.90;;;;;;5020787;28;20038;-80
2023/10/03 03:23:05;;;;;;;20.90;5.57;;;10.20;99.90;;;;;;5039107;28;20053;-80
2023/10/03 03:25:37;;;;;;;10.82;6.05;;;10.10;99.90;;;;;;5022633;28;20026;-80
2023/10/03 03:28:15;;;;;;;9.52;5.63;;;10.10;99.90;;;;;;5018770;28;20037;-80
2023/10/03 03:30:46;;;;;;;11.50;5.50;;;10.10;99.90;;;;;;5035616;28;20080;-79
2023/10/03 03:33:14;;;;;;;7.35;5.18;;;10.10;99.90;;;;;;5021469;28;20022;-82
2023/10/03 03:35:40;;;;;;;13.02;4.40;;;10.10;99.90;;;;;;5039105;28;20026;-81
2023/10/03 03:38:15;;;;;;;12.52;5.40;;;10.10;99.90;;;;;;5022638;28;20049;-81
2023/10/03 03:40:45;;;;;;;9.00;5.22;;;10.10;99.90;;;;;;5042412;28;20017;-81
2023/10/03 03:43:16;;;;;;;10.75;5.13;;;10.20;99.90;;;;;;5026139;28;20033;-82
2023/10/03 03:45:44;;;;;;;14.88;7.20;;;10.30;99.90;;;;;;5028026;28;20118;-81
2023/10/03 03:48:10;;;;;;;12.30;5.38;;;10.30;99.90;;;;;;5029048;28;20048;-82
2023/10/03 03:50:37;;;;;;;7.80;4.07;;;10.30;99.90;;;;;;5046643;28;20053;-82
2023/10/03 03:53:03;;;;;;;19.90;6.32;;;10.30;99.90;;;;;;5028344;28;20022;-81
2023/10/03 03:55:30;;;;;;;8.88;4.13;;;10.20;99.90;;;;;;5044855;28;20085;-82
2023/10/03 03:57:57;;;;;;;10.48;5.13;;;10.30;99.90;;;;;;5048370;28;20033;-82
2023/10/03 04:00:28;;;;;;;10.77;4.80;;;10.10;99.90;;;;;;5031365;28;20034;-82
2023/10/03 04:02:57;;;;;;;9.10;5.82;;;10.00;99.90;;;;;;5022864;28;21286;-80
2023/10/03 04:05:23;;;;;;;9.73;5.63;;;10.00;99.90;;;;;;5022993;28;20081;-80
2023/10/03 04:07:49;;;;;;;12.65;5.28;;;9.90;99.90;;;;;;5042244;28;20053;-79
2023/10/03 04:10:14;;;;;;;8.48;5.07;;;10.00;99.90;;;;;;5040505;28;20370;-79
2023/10/03 04:12:44;;;;;;;9.43;4.82;;;9.90;99.90;;;;;;5021522;28;20052;-80
2023/10/03 04:15:16;;;;;;;12.55;5.13;;;10.10;99.90;;;;;;5040446;28;20122;-80
2023/10/03 04:17:42;;;;;;;21.75;5.00;;;10.30;99.90;;;;;;5022395;28;20041;-81
2023/10/03 04:22:53;;;;;;;10.27;5.45;;;10.40;99.90;;;;;;5040859;28;20061;-80
2023/10/03 04:25:23;;;;;;;10.95;5.78;;;10.40;99.90;;;;;;5022802;28;20021;-80
2023/10/03 04:27:51;;;;;;;8.32;5.15;;;10.40;99.90;;;;;;5023399;28;20026;-80
2023/10/03 04:30:19;;;;;;;8.00;4.82;;;10.30;99.90;;;;;;5020529;28;20500;-80
2023/10/03 04:32:47;;;;;;;10.57;5.30;;;10.30;99.90;;;;;;5020699;28;20021;-79
2023/10/03 04:35:14;;;;;;;8.52;5.82;;;10.20;99.90;;;;;;5038790;28;20112;-78
2023/10/03 04:37:43;;;;;;;7.18;4.07;;;10.40;99.90;;;;;;5019622;28;20026;-79
2023/10/03 04:40:21;;;;;;;8.80;4.55;;;10.30;99.90;;;;;;5019973;28;20064;-79
2023/10/03 04:42:48;;;;;;;4.22;3.30;;;10.10;99.90;;;;;;5020592;28;20029;-78
2023/10/03 04:45:14;;;;;;;9.27;4.78;;;10.00;99.90;;;;;;5038129;28;20030;-79
2023/10/03 04:47:45;;;;;;;8.73;5.03;;;10.00;99.90;;;;;;5020252;28;20031;-78
2023/10/03 04:50:11;;;;;;;8.35;4.57;;;9.90;99.90;;;;;;5037406;28;20474;-79
2023/10/03 04:52:41;;;;;;;15.77;5.22;;;9.90;99.90;;;;;;5039148;28;20534;-79
2023/10/03 04:55:07;;;;;;;12.65;4.70;;;9.90;99.90;;;;;;5021048;28;20447;-79
2023/10/03 04:57:33;;;;;;;13.70;6.25;;;9.80;99.90;;;;;;5021512;28;20132;-78
2023/10/03 04:59:59;;;;;;;6.88;4.03;;;9.90;99.90;;;;;;5020339;28;20052;-79
2023/10/03 05:02:30;;;;;;;4.03;3.42;;;9.80;99.90;;;;;;5037816;28;20037;-78
2023/10/03 05:04:56;;;;;;;8.90;4.65;;;9.80;99.90;;;;;;5038094;28;20018;-78
2023/10/03 05:07:26;;;;;;;12.07;5.53;;;9.70;99.90;;;;;;5019439;28;20017;-79
2023/10/03 05:09:51;;;;;;;7.38;4.25;;;9.60;99.90;;;;;;5019737;28;20108;-78
2023/10/03 05:12:18;;;;;;;8.07;4.32;;;9.70;99.90;;;;;;5019897;28;20438;-80
2023/10/03 05:14:46;;;;;;;7.00;4.18;;;9.60;99.90;;;;;;5020599;28;20485;-79
2023/10/03 05:17:12;;;;;;;13.20;6.55;;;9.60;99.90;;;;;;5020618;28;20025;-79
2023/10/03 05:19:39;;;;;;;9.45;5.20;;;9.80;99.90;;;;;;5020876;28;20029;-81
2023/10/03 05:22:08;;;;;;;6.97;4.22;;;9.70;99.90;;;;;;5025689;28;20045;-78
2023/10/03 05:24:36;;;;;;;10.30;3.92;;;9.80;99.90;;;;;;5021894;28;20033;-78
2023/10/03 05:27:03;;;;;;;7.60;5.32;;;9.80;99.90;;;;;;5022941;28;20029;-79
2023/10/03 05:29:30;;;;;;;10.93;4.18;;;9.80;99.90;;;;;;5022584;28;20087;-78
2023/10/03 05:31:59;;;;;;;10.45;5.93;;;9.90;99.90;;;;;;5030900;28;20025;-78
2023/10/03 05:34:25;;;;;;;21.47;10.03;;;9.80;99.90;;;;;;5035211;28;20006;-80
2023/10/03 05:36:50;;;;;;;10.25;5.00;;;9.80;99.90;;;;;;5029438;28;20275;-78
2023/10/03 05:39:16;;;;;;;12.30;6.07;;;9.90;99.90;;;;;;5041606;28;20037;-78
2023/10/03 05:41:44;;;;;;;12.52;5.18;;;9.80;99.90;;;;;;5033602;28;20037;-81
2023/10/03 05:44:13;;;;;;;12.23;5.75;;;9.80;99.90;;;;;;5039977;28;20598;-81
2023/10/03 05:46:39;;;;;;;;;;;9.90;99.90;;;;;;5033389;28;20021;-80
2023/10/03 05:49:06;;;;;;;5.47;4.10;;;9.80;99.90;;;;;;5033402;28;19901;-78
2023/10/03 05:51:33;;;;;;;9.63;5.05;;;9.90;99.90;;;;;;5032764;28;20032;-78
2023/10/03 05:53:59;;;;;;;10.82;5.43;;;9.80;99.90;;;;;;5038914;28;20029;-77
2023/10/03 05:56:25;;;;;;;6.57;5.25;;;9.90;99.90;;;;;;5023619;28;20029;-78
2023/10/03 05:58:50;;;;;;;5.38;4.47;;;9.90;99.90;;;;;;5022159;28;20034;-78
2023/10/03 06:01:16;;;;;;;10.98;4.85;;;10.00;99.90;;;;;;5034086;28;20200;-78
2023/10/03 06:03:42;;;;;;;8.18;4.00;;;10.00;99.90;;;;;;5016997;28;20514;-79
2023/10/03 06:06:07;;;;;;;17.63;4.50;;;10.00;99.90;;;;;;5016988;28;20044;-79
2023/10/03 06:08:33;;;;;;;15.93;5.03;;;10.10;99.90;;;;;;5018100;28;20072;-78
2023/10/03 06:11:03;;;;;;;8.90;5.97;;;10.20;99.90;;;;;;5018105;28;20089;-78
2023/10/03 06:13:29;;;;;;;8.45;5.05;;;10.20;99.90;;;;;;5036368;28;20014;-79
2023/10/03 06:15:58;;;;;;;13.63;4.45;;;10.30;99.90;;;;;;5017998;28;20026;-78
2023/10/03 06:18:24;;;;;;;8.05;4.10;;;10.40;99.90;;;;;;5035822;28;20026;-79
2023/10/03 06:20:50;;;;;;;12.98;4.18;;;10.50;99.90;;;;;;5037208;28;20025;-79
2023/10/03 06:23:16;;;;;;;5.45;3.60;;;10.50;99.90;;;;;;5035545;28;20128;-79
2023/10/03 06:25:41;;;;;;;12.25;4.35;;;10.40;99.90;;;;;;5018135;28;20511;-80
2023/10/03 06:28:07;;;;;;;10.80;5.43;;;10.50;99.90;;;;;;5034680;28;20377;-80
2023/10/03 06:30:37;;;;;;;9.48;4.70;;;10.60;99.90;;;;;;5035880;28;20108;-80
2023/10/03 06:33:05;;;;;;;12.55;4.22;;;10.70;99.90;;;;;;5018317;28;20087;-79
2023/10/03 06:35:32;;;;;;;15.25;4.95;;;10.80;99.90;;;;;;5035117;28;20068;-79
2023/10/03 06:37:57;;;;;;;12.50;3.80;;;10.80;99.90;;;;;;5034904;28;20029;-79
2023/10/03 06:40:23;;;;;;;16.42;5.15;;;11.00;99.90;;;;;;5035152;28;20040;-78
2023/10/03 06:42:49;;;;;;;6.97;4.55;;;11.10;99.90;;;;;;5035570;28;20030;-79
2023/10/03 06:45:14;;;;;;;10.35;4.45;;;11.20;99.90;;;;;;5018115;28;20021;-78
2023/10/03 06:47:40;;;;;;;11.35;4.82;;;11.40;99.90;;;;;;5035937;28;20496;-78
2023/10/03 06:50:07;;;;;;;10.90;4.72;;;11.50;99.90;;;;;;5017859;28;20026;-79
2023/10/03 06:52:34;;;;;;;12.98;5.70;;;11.70;99.90;;;;;;5017700;28;20029;-76
2023/10/03 06:55:01;;;;;;;5.00;3.22;;;11.80;99.90;;;;;;5017379;28;20031;-79
2023/10/03 06:57:27;;;;;;;7.50;3.92;;;11.90;99.90;;;;;;5017534;28;20028;-79
2023/10/03 06:59:54;;;;;;;10.15;4.93;;;12.10;99.90;;;;;;5017476;28;20034;-79
2023/10/03 07:02:20;;;;;;;9.13;4.65;;;12.20;99.90;;;;;;5035956;28;20025;-78
2023/10/03 07:04:46;;;;;;;10.32;5.15;;;12.20;99.90;;;;;;5017804;28;20025;-79
2023/10/03 07:07:12;;;;;;;6.07;5.13;;;12.30;99.90;;;;;;5018102;28;20081;-79
2023/10/03 07:09:38;;;;;;;8.98;4.18;;;12.40;99.90;;;;;;5036821;28;20547;-80
2023/10/03 07:12:07;;;;;;;12.32;6.05;;;12.50;99.90;;;;;;5036358;28;20465;-81
2023/10/03 07:14:37;;;;;;;6.20;3.78;;;12.60;99.90;;;;;;5037538;28;20032;-79
2023/10/03 07:17:03;;;;;;;12.88;5.53;;;12.80;99.90;;;;;;5039174;28;20021;-79
2023/10/03 07:19:30;;;;;;;11.30;4.88;;;12.90;99.90;;;;;;5022062;28;20100;-80
2023/10/03 07:21:57;;;;;;;10.48;4.15;;;13.00;99.90;;;;;;5039581;28;20053;-79
2023/10/03 07:24:26;;;;;;;10.43;4.90;;;13.20;99.90;;;;;;5041621;28;20116;-78
2023/10/03 07:26:52;;;;;;;;;;;13.40;99.90;;;;;;5025402;28;20470;-81
2023/10/03 07:29:17;;;;;;;8.98;4.70;;;13.50;99.90;;;;;;5025344;28;19908;-79
2023/10/03 07:31:43;;;;;;;12.60;4.78;;;13.60;99.90;;;;;;5041402;28;20068;-80
2023/10/03 07:34:09;;;;;;;10.35;3.92;;;13.80;99.90;;;;;;5026946;28;20061;-78
2023/10/03 07:36:36;;;;;;;6.22;4.55;;;14.00;99.90;;;;;;5043706;28;20064;-81
2023/10/03 07:39:03;;;;;;;7.88;3.75;;;14.10;99.90;;;;;;5266258;23;20050;-81
2023/10/03 07:41:29;;;;;;;6.38;3.47;;;14.20;99.90;;;;;;5015525;28;20006;-83
2023/10/03 07:43:54;;;;;;;7.05;4.88;;;14.40;99.90;;;;;;5018324;28;20065;-84
2023/10/03 07:46:25;;;;;;;8.60;4.80;;;14.50;99.90;;;;;;5019030;28;20026;-84
2023/10/03 07:48:54;;;;;;;13.77;6.22;;;14.60;99.90;;;;;;5014362;28;20080;-84
2023/10/03 07:51:26;;;;;;;8.23;4.50;;;14.80;99.90;;;;;;4998514;28;20022;-84
2023/10/03 07:53:52;;;;;;;6.80;4.70;;;14.90;99.90;;;;;;4999122;28;20506;-87
2023/10/03 07:56:43;;;;;;;8.07;3.20;;;15.00;99.90;;;;;;4997631;28;20109;-86
2023/10/03 07:59:09;;;;;;;11.05;4.47;;;15.10;99.90;;;;;;4996480;28;20321;-86
2023/10/03 08:01:38;;;;;;;4.22;3.83;;;15.20;99.90;;;;;;4996617;28;20266;-86
2023/10/03 08:04:08;;;;;;;;;;;15.40;99.90;;;;;;4996593;28;20116;-86
2023/10/03 08:06:34;;;;;;;;;;;15.60;99.90;;;;;;4996388;28;19905;-87
2023/10/03 08:09:08;;;;;;;5.85;4.75;;;15.80;99.90;;;;;;4996134;28;19912;-87
2023/10/03 08:11:35;;;;;;;8.65;4.82;;;15.90;99.90;;;;;;4996103;28;20030;-87
2023/10/03 08:14:11;;;;;;;5.32;3.83;;;16.10;99.90;;;;;;4996495;28;20030;-87
2023/10/03 08:16:41;;;;;;;7.57;3.67;;;16.30;99.90;;;;;;4997584;28;20381;-88
2023/10/03 08:19:26;;;;;;;10.15;4.78;;;16.50;99.90;;;;;;4996232;28;20116;-87
2023/10/03 08:21:53;;;;;;;10.82;4.47;;;16.60;99.90;;;;;;4997381;28;20150;-87
2023/10/03 08:24:24;;;;;;;9.27;3.50;;;17.00;99.90;;;;;;4995853;28;20041;-87
2023/10/03 08:26:51;;;;;;;14.07;4.00;;;17.30;99.90;;;;;;4996056;28;20034;-86
2023/10/03 08:29:23;;;;;;;4.95;3.13;;;17.60;99.90;;;;;;4996080;28;20056;-84
2023/10/03 08:31:57;;;;;;;11.90;3.90;;;17.80;99.90;;;;;;4996952;28;20027;-88
2023/10/03 08:34:26;;;;;;;9.20;2.72;;;18.10;99.90;;;;;;4997086;28;20105;-83
2023/10/03 08:36:58;;;;;;;6.15;4.68;;;18.10;99.90;;;;;;4995841;28;20491;-87
2023/10/03 08:39:32;;;;;;;11.98;3.65;;;18.20;99.90;;;;;;4995492;28;20142;-87
2023/10/03 08:42:12;;;;;;;10.00;3.53;;;18.30;99.90;;;;;;4995400;28;20546;-87
2023/10/03 08:44:59;;;;;;;6.47;3.28;;;18.50;99.90;;;;;;4995632;28;20060;-86
2023/10/03 08:47:29;;;;;;;12.73;5.05;;;18.70;99.90;;;;;;4995652;28;20026;-85
2023/10/03 08:50:14;;;;;;;12.70;4.57;;;18.80;99.90;;;;;;4995782;28;20026;-84
2023/10/03 08:52:47;;;;;;;10.25;4.65;;;19.10;99.90;;;;;;5000268;28;20054;-84
2023/10/03 08:55:19;;;;;;;6.28;2.95;;;19.20;99.90;;;;;;4999492;28;20034;-85
2023/10/03 08:57:47;;;;;;;13.30;4.20;;;19.40;99.90;;;;;;4995868;28;20038;-85
2023/10/03 09:00:14;;;;;;;8.93;4.45;;;19.60;99.90;;;;;;4995137;28;20045;-85
2023/10/03 09:02:49;;;;;;;8.35;3.85;;;19.90;99.90;;;;;;4994922;28;20034;-86
2023/10/03 09:05:19;;;;;;;9.45;3.92;;;20.30;99.90;;;;;;4995039;28;20019;-86
2023/10/03 09:07:46;;;;;;;8.23;4.53;;;20.40;99.90;;;;;;4996125;28;20199;-86
2023/10/03 09:10:22;;;;;;;8.57;4.22;;;20.60;99.90;;;;;;4996143;28;20026;-87
2023/10/03 09:12:50;;;;;;;9.32;4.82;;;20.70;99.90;;;;;;4996418;28;20076;-87
2023/10/03 09:15:17;;;;;;;9.73;4.30;;;20.80;99.90;;;;;;4995024;28;20494;-88
2023/10/03 09:17:49;;;;;;;12.27;4.93;;;20.90;99.90;;;;;;4994771;28;20552;-84
2023/10/03 09:20:22;;;;;;;8.65;4.28;;;20.90;99.90;;;;;;4994875;28;20037;-88
2023/10/03 09:22:48;;;;;;;6.57;3.22;;;20.90;99.90;;;;;;4995068;28;20387;-87
2023/10/03 09:25:20;;;;;;;6.38;3.47;;;21.00;99.90;;;;;;4995018;28;20115;-85
2023/10/03 09:27:46;;;;;;;3.95;2.40;;;21.20;99.90;;;;;;4994896;28;20057;-87
2023/10/03 09:30:22;;;;;;;5.88;2.42;;;21.50;99.90;;;;;;4994787;28;20022;-85
2023/10/03 09:32:50;;;;;;;3.65;2.53;;;21.70;99.90;;;;;;4995019;28;20117;-85
2023/10/03 09:35:16;;;;;;;4.03;2.40;;;22.00;99.90;;;;;;4994781;28;20022;-87
2023/10/03 09:37:48;;;;;;;4.45;2.22;;;22.20;99.90;;;;;;4994092;28;20026;-87
2023/10/03 09:40:17;;;;;;;4.18;2.35;;;22.40;99.90;;;;;;4994793;28;20455;-87
2023/10/03 09:42:48;;;;;;;4.97;2.88;;;22.50;99.90;;;;;;4994854;28;20027;-85
2023/10/03 09:45:24;;;;;;;2.90;2.47;;;22.70;99.90;;;;;;4994681;28;20026;-86
2023/10/03 09:47:58;;;;;;;3.65;2.70;;;22.90;99.70;;;;;;4994612;28;20026;-88
2023/10/03 09:50:26;;;;;;;5.80;2.40;;;23.00;99.10;;;;;;4994601;28;20027;-87
2023/10/03 09:52:52;;;;;;;3.72;2.00;;;23.20;99.80;;;;;;4994324;28;20034;-86
2023/10/03 09:55:21;;;;;;;2.97;1.85;;;23.20;97.60;;;;;;4994393;28;20134;-88
2023/10/03 09:57:51;;;;;;;2.60;1.95;;;23.20;97.30;;;;;;4994097;28;20042;-86
2023/10/03 10:03:30;;;;;;;5.65;2.30;;;23.40;97.60;;;;;;4936110;29;20067;-87
2023/10/03 10:06:22;;;;;;;10.50;3.53;;;23.50;95.80;;;;;;4935491;29;20039;-86
2023/10/03 10:09:01;;;;;;;5.35;2.00;;;23.50;95.00;;;;;;4975653;28;20038;-87
2023/10/03 10:11:29;;;;;;;4.03;2.67;;;23.60;95.20;;;;;;4994272;28;20027;-88
2023/10/03 10:14:09;;;;;;;2.40;2.20;;;23.70;94.80;;;;;;4994004;28;20038;-87
2023/10/03 10:17:03;;;;;;;1.88;1.60;;;23.80;94.90;;;;;;4993869;28;20073;-87
2023/10/03 10:20:07;;;;;;;3.28;2.15;;;23.90;94.30;;;;;;4993806;28;20034;-86
2023/10/03 10:23:02;;;;;;;2.42;1.63;;;24.00;93.50;;;;;;4994138;28;20033;-88
2023/10/03 10:25:30;;;;;;;3.95;2.28;;;24.10;93.70;;;;;;4994329;28;20407;-87
2023/10/03 10:28:05;;;;;;;3.08;2.47;;;24.10;92.70;;;;;;4993636;28;20511;-85
2023/10/03 10:30:31;;;;;;;2.95;2.22;;;24.10;92.60;;;;;;4993661;28;20030;-86
2023/10/03 10:33:22;;;;;;;13.30;2.72;;;24.20;92.20;;;;;;4993611;28;20026;-85
2023/10/03 10:36:08;;;;;;;5.25;2.60;;;24.10;92.10;;;;;;4993603;28;20026;-87
2023/10/03 10:38:34;;;;;;;6.68;2.33;;;24.10;92.10;;;;;;4993526;28;20515;-87
2023/10/03 10:41:22;;;;;;;2.72;2.03;;;24.20;92.70;;;;;;4993592;28;20035;-88
2023/10/03 10:44:10;;;;;;;3.42;1.80;;;24.30;92.40;;;;;;4993542;28;20113;-87
2023/10/03 10:46:49;;;;;;;4.38;2.60;;;24.40;92.30;;;;;;4993588;28;20049;-87
2023/10/03 10:49:30;;;;;;;5.40;2.58;;;24.40;91.80;;;;;;4993338;28;20026;-86
2023/10/03 10:51:57;;;;;;;7.80;2.78;;;24.30;92.60;;;;;;4993306;28;20041;-87
2023/10/03 10:54:24;;;;;;;5.72;2.50;;;24.30;92.60;;;;;;4993428;28;20019;-87
2023/10/03 10:57:00;;;;;;;5.03;2.70;;;24.20;93.20;;;;;;4993412;28;20030;-87
2023/10/03 10:59:26;;;;;;;7.75;2.85;;;24.10;93.00;;;;;;4993386;28;20156;-87
2023/10/03 11:01:53;;;;;;;3.75;2.50;;;24.10;93.30;;;;;;4993221;28;20034;-81
2023/10/03 11:04:26;;;;;;;3.97;2.42;;;24.00;93.30;;;;;;4993150;28;20538;-81
2023/10/03 11:06:55;;;;;;;5.32;2.72;;;24.10;93.90;;;;;;4992833;28;20026;-85
2023/10/03 11:09:22;;;;;;;5.07;2.45;;;24.20;92.80;;;;;;4992931;28;20415;-87
2023/10/03 11:11:51;;;;;;;6.75;2.63;;;24.20;93.00;;;;;;4994249;28;20154;-81
2023/10/03 11:14:28;;;;;;;6.60;2.03;;;24.40;93.10;;;;;;4994049;28;20098;-82
2023/10/03 11:16:55;;;;;;;4.25;2.80;;;24.30;92.10;;;;;;4993695;28;20110;-81
2023/10/03 11:19:21;;;;;;;6.40;2.60;;;24.30;92.80;;;;;;4992711;28;20034;-88
2023/10/03 11:21:48;;;;;;;3.80;2.13;;;24.40;92.30;;;;;;4992647;28;20479;-87
2023/10/03 11:24:22;;;;;;;4.57;3.00;;;24.40;92.20;;;;;;4993468;28;20050;-85
2023/10/03 11:26:51;;;;;;;4.38;3.00;;;24.40;92.30;;;;;;4993716;28;20022;-84
2023/10/03 11:29:36;;;;;;;7.28;2.92;;;24.40;92.70;;;;;;4992582;28;20582;-83
2023/10/03 11:32:03;;;;;;;4.70;2.75;;;24.40;92.40;;;;;;4992272;28;20149;-82
2023/10/03 11:34:35;;;;;;;6.13;2.67;;;24.50;92.20;;;;;;4992522;28;20023;-83
2023/10/03 11:37:03;;;;;;;5.00;2.30;;;24.50;92.10;;;;;;4993843;28;20025;-85
2023/10/03 11:39:36;;;;;;;5.97;2.72;;;24.60;92.20;;;;;;4980823;28;20121;-84
2023/10/03 11:42:24;;;;;;;2.95;2.17;;;24.60;91.90;;;;;;4976320;28;20068;-83
2023/10/03 11:45:01;;;;;;;7.72;3.25;;;24.60;91.80;;;;;;4976718;28;20058;-87
2023/10/03 11:47:27;;;;;;;8.65;3.20;;;24.50;92.00;;;;;;4982627;28;20090;-85
2023/10/03 11:49:53;;;;;;;7.65;2.45;;;24.60;91.90;;;;;;4997690;28;20081;-85
2023/10/03 11:52:20;;;;;;;4.88;2.60;;;24.50;91.70;;;;;;4976636;28;20487;-87
2023/10/03 11:54:45;;;;;;;3.38;2.67;;;24.50;91.70;;;;;;4976894;28;20030;-87
2023/10/03 11:57:12;;;;;;;4.88;2.67;;;24.50;91.60;;;;;;4993939;28;20033;-87
2023/10/03 11:59:40;;;;;;;6.15;2.83;;;24.60;92.10;;;;;;4976697;28;20042;-86
2023/10/03 12:02:06;;;;;;;5.43;3.80;;;24.70;92.10;;;;;;4980261;28;20030;-87
2023/10/03 12:04:34;;;;;;;3.47;2.35;;;24.70;91.60;;;;;;4979933;28;20045;-86
2023/10/03 12:07:01;;;;;;;3.58;2.58;;;24.50;92.10;;;;;;4979910;28;20459;-84
2023/10/03 12:09:26;;;;;;;3.67;2.50;;;24.40;92.50;;;;;;4980314;28;20142;-86
2023/10/03 12:11:52;;;;;;;4.75;2.78;;;24.50;92.00;;;;;;4979969;28;20482;-85
2023/10/03 12:14:18;;;;;;;5.97;2.58;;;24.30;92.40;;;;;;4997474;28;20023;-86
2023/10/03 12:16:51;;;;;;;2.58;2.03;;;24.10;92.50;;;;;;4980096;28;20026;-85
2023/10/03 12:19:21;;;;;;;4.20;2.00;;;24.10;92.80;;;;;;4979727;28;20034;-87
2023/10/03 12:21:46;;;;;;;5.95;3.05;;;25.00;92.20;;;;;;4979707;28;20022;-86
2023/10/03 12:24:12;;;;;;;5.10;2.72;;;25.60;90.90;;;;;;4997011;28;20033;-86
2023/10/03 12:26:38;;;;;;;6.00;2.40;;;25.50;91.60;;;;;;4979664;28;20109;-87
2023/10/03 12:29:06;;;;;;;4.40;2.63;;;25.40;91.50;;;;;;4979702;28;20505;-85
2023/10/03 12:31:35;;;;;;;4.93;2.73;;;24.70;92.00;;;;;;4979528;28;20442;-86
2023/10/03 12:34:01;;;;;;;5.07;3.15;;;24.30;92.40;;;;;;4979387;28;20031;-77
2023/10/03 12:36:32;;;;;;;5.70;2.97;;;24.00;93.00;;;;;;4978815;28;20022;-87
2023/10/03 12:38:59;;;;;;;6.93;2.92;;;23.80;93.80;;;;;;4988370;28;20105;-87
2023/10/03 12:41:31;;;;;;;3.00;2.40;;;23.70;94.00;;;;;;4995719;28;20026;-87
2023/10/03 12:43:57;;;;;;;6.18;2.75;;;23.80;94.00;;;;;;4996224;28;20026;-87
2023/10/03 12:46:23;;;;;;;4.10;3.05;;;23.80;93.80;;;;;;4995861;28;20022;-88
2023/10/03 12:48:49;;;;;;;8.43;3.15;;;23.70;93.70;;;;;;4995626;28;20022;-86
2023/10/03 12:51:14;;;;;;;4.28;3.20;;;23.60;93.70;;;;;;4996980;28;20019;-87
2023/10/03 12:53:40;;;;;;;3.28;2.90;;;23.50;93.80;;;;;;4995627;28;20118;-86
2023/10/03 12:56:08;;;;;;;5.28;2.90;;;23.50;93.80;;;;;;4995473;28;20026;-85
2023/10/03 12:58:35;;;;;;;3.50;2.95;;;23.60;93.50;;;;;;4995213;28;20034;-86
2023/10/03 13:01:02;;;;;;;6.03;3.33;;;23.50;93.40;;;;;;4996523;28;20018;-86
2023/10/03 13:03:29;;;;;;;3.55;2.80;;;23.60;94.20;;;;;;4995570;28;20050;-88